Time;durP1;ratioP1;P1;durP2;ratioP2;P2;SDS_P1;SDS_P2;PMS_P1;PMS_P2;Temp;Humidity;BMP_temperature;BMP_pressure;BME280_temperature;BME280_humidity;BME280_pressure;Samples;Min_cycle;Max_cycle;Signal;HPM_P1;HPM_P2
2023/07/31 00:02:22;;;;;;;3.40;2.33;;;;;;;20.61;79.46;94245.00;5073574;28;20203;-77
2023/07/31 00:04:49;;;;;;;2.95;2.25;;;;;;;20.60;79.50;94251.69;5070273;28;20203;-76
2023/07/31 00:07:16;;;;;;;4.25;2.40;;;;;;;20.57;80.20;94250.50;5069976;28;20233;-76
2023/07/31 00:09:44;;;;;;;4.18;2.30;;;;;;;20.63;80.60;94247.34;5069984;28;20203;-75
2023/07/31 00:12:11;;;;;;;4.10;2.75;;;;;;;20.54;81.01;94254.06;5069543;28;20206;-75
2023/07/31 00:14:38;;;;;;;3.80;2.20;;;;;;;20.49;81.80;94251.75;5068896;28;20252;-74
2023/07/31 00:17:05;;;;;;;3.95;2.60;;;;;;;20.46;82.11;94249.78;5069992;28;20203;-75
2023/07/31 00:19:32;;;;;;;3.72;1.58;;;;;;;20.46;81.56;94251.75;5069607;28;20752;-74
2023/07/31 00:21:59;;;;;;;3.22;2.25;;;;;;;20.48;81.95;94257.63;5069384;28;20938;-75
2023/07/31 00:24:25;;;;;;;2.70;2.08;;;;;;;20.49;81.62;94260.00;5069967;28;20249;-76
2023/07/31 00:26:54;;;;;;;2.38;2.05;;;;;;;20.41;82.16;94246.66;5069439;28;20223;-75
2023/07/31 00:29:20;;;;;;;5.32;2.75;;;;;;;20.24;83.46;94249.03;5069833;28;20219;-75
2023/07/31 00:31:47;;;;;;;5.32;3.15;;;;;;;20.01;85.95;94239.69;5069466;28;20241;-74
2023/07/31 00:34:14;;;;;;;3.95;2.60;;;;;;;19.83;87.47;94235.00;5069890;28;20194;-75
2023/07/31 00:36:41;;;;;;;4.72;3.28;;;;;;;19.78;87.99;94221.69;5069360;28;20736;-75
2023/07/31 00:39:07;;;;;;;3.33;3.00;;;;;;;19.67;89.52;94223.66;5070191;28;20202;-75
2023/07/31 00:41:34;;;;;;;4.47;2.97;;;;;;;19.57;90.86;94215.41;5069567;28;20256;-75
2023/07/31 00:44:02;;;;;;;3.80;3.03;;;;;;;19.56;91.46;94214.63;5069290;28;20281;-74
2023/07/31 00:46:29;;;;;;;2.90;2.38;;;;;;;19.59;90.92;94218.56;5072950;28;20238;-75
2023/07/31 00:48:56;;;;;;;6.50;4.28;;;;;;;19.61;91.07;94219.75;5069394;28;20199;-75
2023/07/31 00:51:23;;;;;;;4.30;2.88;;;;;;;19.58;90.94;94217.00;5069586;28;20666;-74
2023/07/31 00:53:50;;;;;;;6.95;4.13;;;;;;;19.55;91.23;94217.78;5069085;28;20248;-74
2023/07/31 00:56:17;;;;;;;5.43;4.80;;;;;;;19.57;91.81;94216.19;5069383;28;20202;-74
2023/07/31 00:58:44;;;;;;;5.85;5.20;;;;;;;19.58;91.50;94222.47;5069522;28;20207;-75
2023/07/31 01:01:12;;;;;;;6.95;5.93;;;;;;;19.60;91.16;94215.41;5085034;28;20206;-73
2023/07/31 01:03:39;;;;;;;5.15;4.20;;;;;;;19.60;92.03;94220.91;5075310;28;20203;-76
2023/07/31 01:06:16;;;;;;;5.88;4.10;;;;;;;19.59;92.07;94215.81;5069459;28;20230;-75
2023/07/31 01:08:55;;;;;;;7.10;3.25;;;;;;;19.60;91.54;94220.13;5069616;28;20248;-76
2023/07/31 01:11:28;;;;;;;6.22;4.60;;;;;;;19.59;91.48;94213.06;5069391;28;20212;-74
2023/07/31 01:13:55;;;;;;;7.97;5.47;;;;;;;19.55;91.66;94210.31;5069076;28;20199;-75
2023/07/31 01:16:24;;;;;;;7.03;4.75;;;;;;;19.53;92.39;94209.94;5069381;28;20203;-76
2023/07/31 01:18:50;;;;;;;9.85;5.82;;;;;;;19.53;92.73;94209.94;5069109;28;20520;-76
2023/07/31 01:21:42;;;;;;;9.07;5.75;;;;;;;19.52;92.79;94208.38;5069145;28;20203;-75
2023/07/31 01:24:22;;;;;;;11.75;8.18;;;;;;;19.47;93.30;94211.47;5057936;28;20769;-76
2023/07/31 01:26:56;;;;;;;10.13;8.20;;;;;;;19.47;93.60;94195.00;5072507;28;20302;-76
2023/07/31 01:29:30;;;;;;;10.63;7.07;;;;;;;19.42;93.83;94206.38;5073308;28;20190;-76
2023/07/31 01:32:02;;;;;;;12.55;8.75;;;;;;;19.41;94.01;94202.06;5072975;28;20572;-76
2023/07/31 01:34:30;;;;;;;14.35;8.98;;;;;;;19.40;94.25;94195.81;5073057;28;20221;-76
2023/07/31 01:36:57;;;;;;;15.27;10.95;;;;;;;19.45;94.56;94197.34;5072927;28;20203;-75
2023/07/31 01:39:23;;;;;;;15.75;12.07;;;;;;;19.40;94.95;94203.25;5072947;28;20221;-76
2023/07/31 01:41:52;;;;;;;17.63;10.90;;;;;;;19.35;95.79;94198.16;5072317;28;20696;-76
2023/07/31 01:44:18;;;;;;;13.07;8.73;;;;;;;19.35;95.80;94198.16;5072719;28;20203;-76
2023/07/31 01:46:45;;;;;;;18.88;11.32;;;;;;;19.32;96.49;94198.94;5076081;28;20227;-77
2023/07/31 01:49:12;;;;;;;18.70;11.82;;;;;;;19.26;97.03;94189.53;5072975;28;20199;-75
2023/07/31 01:51:39;;;;;;;20.48;13.05;;;;;;;19.28;96.91;94193.44;5072212;28;20202;-76
2023/07/31 01:54:06;;;;;;;19.15;12.40;;;;;;;19.28;97.56;94200.88;5073340;28;20488;-75
2023/07/31 01:56:32;;;;;;;23.58;13.35;;;;;;;19.14;98.29;94199.72;5072922;28;20210;-75
2023/07/31 01:59:01;;;;;;;15.25;10.90;;;;;;;19.20;98.13;94202.88;5072646;28;20214;-75
2023/07/31 02:01:27;;;;;;;19.90;13.55;;;;;;;19.16;98.43;94208.34;5080574;28;20253;-77
2023/07/31 02:03:54;;;;;;;22.38;12.82;;;;;;;19.21;98.17;94203.66;5072621;28;20554;-76
2023/07/31 02:06:22;;;;;;;20.40;14.40;;;;;;;19.23;97.87;94206.78;5072252;28;20280;-75
2023/07/31 02:08:49;;;;;;;20.10;13.20;;;;;;;19.25;97.90;94209.94;5072128;28;20199;-76
2023/07/31 02:11:16;;;;;;;20.77;13.02;;;;;;;19.24;98.00;94203.66;5072160;28;20210;-75
2023/07/31 02:13:42;;;;;;;21.48;13.60;;;;;;;19.31;97.92;94219.34;5072189;28;20207;-75
2023/07/31 02:16:10;;;;;;;22.00;13.95;;;;;;;19.34;98.44;94210.31;5072430;28;20600;-76
2023/07/31 02:18:37;;;;;;;20.08;11.85;;;;;;;19.30;98.29;94217.75;5072049;28;20203;-75
2023/07/31 02:21:04;;;;;;;21.00;13.50;;;;;;;19.33;98.17;94217.78;5071976;28;20203;-75
2023/07/31 02:23:31;;;;;;;21.02;14.35;;;;;;;19.30;98.04;94223.25;5071756;28;20586;-74
2023/07/31 02:25:58;;;;;;;23.55;14.13;;;;;;;19.38;98.26;94213.84;5071098;28;20687;-74
2023/07/31 02:28:24;;;;;;;21.35;13.93;;;;;;;19.38;97.79;94219.34;5070779;28;20234;-75
2023/07/31 02:30:52;;;;;;;19.70;13.60;;;;;;;19.38;98.03;94213.84;5082521;28;20558;-75
2023/07/31 02:33:20;;;;;;;18.02;12.27;;;;;;;19.43;98.15;94222.47;5073168;28;20250;-73
2023/07/31 02:35:48;;;;;;;19.90;11.85;;;;;;;19.48;97.35;94208.34;5071585;28;20710;-73
2023/07/31 02:38:15;;;;;;;11.48;7.05;;;;;;;19.56;97.54;94214.63;5070460;28;20203;-76
2023/07/31 02:40:42;;;;;;;23.73;12.98;;;;;;;19.55;97.23;94220.53;5071784;28;20203;-76
2023/07/31 02:43:08;;;;;;;21.60;15.15;;;;;;;19.56;96.88;94209.13;5071174;28;20199;-75
2023/07/31 02:45:35;;;;;;;15.38;9.20;;;;;;;19.61;96.73;94205.22;5073817;28;20670;-73
2023/07/31 02:48:02;;;;;;;19.00;11.80;;;;;;;19.65;96.31;94209.53;5071853;28;20234;-74
2023/07/31 02:50:31;;;;;;;17.92;10.05;;;;;;;19.75;94.64;94216.97;5071237;28;20680;-75
2023/07/31 02:52:58;;;;;;;16.95;13.07;;;;;;;19.79;94.27;94217.75;5071037;28;20203;-75
2023/07/31 02:55:25;;;;;;;22.75;14.50;;;;;;;19.85;93.84;94232.66;5071519;28;20226;-75
2023/07/31 02:57:52;;;;;;;21.70;13.70;;;;;;;19.86;93.82;94234.22;5071371;28;20207;-76
2023/07/31 03:00:19;;;;;;;13.70;10.10;;;;;;;19.92;93.04;94239.31;5079396;28;20193;-75
2023/07/31 03:02:46;;;;;;;17.58;10.95;;;;;;;19.98;92.82;94229.47;5070847;28;20613;-74
2023/07/31 03:05:13;;;;;;;18.95;12.30;;;;;;;20.05;92.11;94240.47;5071267;28;20203;-75
2023/07/31 03:07:41;;;;;;;19.70;12.43;;;;;;;20.05;92.23;94244.00;5071028;28;20223;-76
2023/07/31 03:10:09;;;;;;;22.17;12.95;;;;;;;20.04;92.34;94241.66;5071313;28;20195;-76
2023/07/31 03:12:36;;;;;;;16.02;10.25;;;;;;;20.03;92.60;94237.31;5070823;28;20207;-74
2023/07/31 03:15:02;;;;;;;14.52;9.52;;;;;;;20.04;92.61;94239.69;5070866;28;20713;-76
2023/07/31 03:17:29;;;;;;;20.98;13.95;;;;;;;20.08;92.62;94245.19;5071092;28;20718;-76
2023/07/31 03:19:56;;;;;;;19.30;12.23;;;;;;;20.04;92.36;94244.41;5070761;28;20203;-73
2023/07/31 03:22:23;;;;;;;21.63;14.68;;;;;;;20.01;93.10;94250.69;5070761;28;20206;-75
2023/07/31 03:24:51;;;;;;;20.95;12.52;;;;;;;20.01;93.31;94245.97;5070825;28;20563;-76
2023/07/31 03:27:17;;;;;;;16.23;9.95;;;;;;;20.04;93.00;94252.66;5070722;28;20311;-77
2023/07/31 03:29:44;;;;;;;21.70;13.18;;;;;;;20.02;93.28;94246.75;5070547;28;20198;-74
2023/07/31 03:32:11;;;;;;;19.85;12.27;;;;;;;20.02;93.31;94244.00;5070310;28;20284;-75
2023/07/31 03:34:38;;;;;;;14.63;10.40;;;;;;;20.00;93.18;94249.91;5070237;28;20628;-76
2023/07/31 03:37:06;;;;;;;9.82;7.07;;;;;;;20.00;92.89;94249.91;5070254;28;20600;-74
2023/07/31 03:39:32;;;;;;;19.77;12.77;;;;;;;20.03;92.49;94253.81;5070481;28;20656;-76
2023/07/31 03:42:00;;;;;;;18.25;11.75;;;;;;;20.07;91.33;94255.41;5070448;28;20676;-74
2023/07/31 03:44:27;;;;;;;22.08;13.32;;;;;;;20.09;91.74;94257.75;5070300;28;20226;-74
2023/07/31 03:46:54;;;;;;;18.58;11.52;;;;;;;20.09;91.47;94257.75;5072718;28;20230;-72
2023/07/31 03:49:21;;;;;;;20.77;13.23;;;;;;;20.12;91.45;94262.44;5069541;28;20207;-75
2023/07/31 03:51:48;;;;;;;19.00;11.65;;;;;;;20.12;91.06;94262.44;5069376;28;20661;-74
2023/07/31 03:54:14;;;;;;;18.02;11.90;;;;;;;20.15;91.07;94269.91;5070013;28;20214;-74
2023/07/31 03:56:41;;;;;;;20.40;12.55;;;;;;;20.13;90.39;94264.00;5069813;28;20199;-74
2023/07/31 03:59:09;;;;;;;23.50;13.13;;;;;;;20.24;90.13;94270.25;5069817;28;20202;-81
2023/07/31 04:01:36;;;;;;;22.15;13.63;;;;;;;20.24;90.38;94275.75;5078117;28;20672;-80
2023/07/31 04:04:03;;;;;;;22.13;13.40;;;;;;;20.31;89.94;94270.25;5069993;28;20202;-80
2023/07/31 04:06:30;;;;;;;23.77;14.05;;;;;;;20.26;89.89;94273.41;5070316;28;20198;-80
2023/07/31 04:08:57;;;;;;;25.48;14.43;;;;;;;20.32;90.09;94282.81;5069560;28;20391;-78
2023/07/31 04:11:23;;;;;;;22.48;12.48;;;;;;;20.25;90.22;94277.31;5070116;28;20642;-75
2023/07/31 04:13:50;;;;;;;22.98;13.25;;;;;;;20.29;90.18;94275.34;5070066;28;20203;-83
2023/07/31 04:16:18;;;;;;;17.15;10.88;;;;;;;20.23;90.11;94283.22;5070217;28;20201;-79
2023/07/31 04:18:45;;;;;;;22.45;12.35;;;;;;;20.32;89.05;94277.31;5069929;28;20325;-84
2023/07/31 04:21:12;;;;;;;25.00;15.02;;;;;;;20.23;90.00;94285.19;5070163;28;20244;-75
2023/07/31 04:23:39;;;;;;;26.08;15.65;;;;;;;20.25;90.40;94282.81;5069750;28;20219;-75
2023/07/31 04:26:06;;;;;;;23.20;13.77;;;;;;;20.34;89.53;94279.69;5069856;28;20203;-76
2023/07/31 04:28:32;;;;;;;24.55;13.52;;;;;;;20.40;89.53;94273.38;5069438;28;20231;-75
2023/07/31 04:30:59;;;;;;;21.90;13.65;;;;;;;20.45;88.91;94275.72;5067874;28;20194;-75
2023/07/31 04:33:27;;;;;;;22.17;13.00;;;;;;;20.51;87.71;94296.13;5068623;28;20226;-75
2023/07/31 04:35:54;;;;;;;22.75;12.40;;;;;;;20.44;87.48;94285.16;5069543;28;20211;-75
2023/07/31 04:38:22;;;;;;;19.15;11.93;;;;;;;20.51;86.91;94287.09;5069781;28;20546;-75
2023/07/31 04:40:49;;;;;;;20.20;12.68;;;;;;;20.59;86.36;94285.91;5069795;28;20264;-75
2023/07/31 04:43:16;;;;;;;20.15;11.27;;;;;;;20.67;85.64;94287.44;5055866;28;20210;-76
2023/07/31 04:45:46;;;;;;;20.63;12.45;;;;;;;20.69;85.60;94282.31;5072664;28;20688;-76
2023/07/31 04:48:12;;;;;;;15.05;10.35;;;;;;;20.55;85.54;94280.41;5069354;28;20583;-74
2023/07/31 04:50:40;;;;;;;21.85;12.98;;;;;;;20.64;85.95;94281.97;5069062;28;20199;-76
2023/07/31 04:53:07;;;;;;;21.13;10.52;;;;;;;20.62;85.95;94284.31;5068853;28;20199;-76
2023/07/31 04:55:34;;;;;;;24.75;13.32;;;;;;;20.68;85.59;94283.50;5068531;28;20301;-75
2023/07/31 04:58:00;;;;;;;20.23;12.68;;;;;;;21.22;83.48;94273.78;5068962;28;20252;-74
2023/07/31 05:00:26;;;;;;;20.55;11.85;;;;;;;21.56;80.82;94271.16;5066870;28;20204;-75
2023/07/31 05:02:53;;;;;;;17.10;12.02;;;;;;;22.01;78.99;94267.63;5068834;28;20199;-75
2023/07/31 05:05:20;;;;;;;19.20;11.75;;;;;;;22.35;78.02;94271.22;5069210;28;20207;-75
2023/07/31 05:07:48;;;;;;;17.80;10.38;;;;;;;22.00;78.54;94266.09;5069196;28;20238;-75
2023/07/31 05:10:15;;;;;;;13.70;8.77;;;;;;;22.33;77.21;94268.88;5068330;28;20302;-75
2023/07/31 05:12:42;;;;;;;18.05;11.15;;;;;;;22.65;76.36;94267.72;5070136;28;20213;-75
2023/07/31 05:15:10;;;;;;;18.65;14.40;;;;;;;22.97;74.39;94261.78;5065406;28;20207;-74
2023/07/31 05:17:36;;;;;;;18.85;15.02;;;;;;;23.37;73.17;94257.28;5068387;28;20206;-74
2023/07/31 05:20:03;;;;;;;15.10;10.05;;;;;;;23.99;69.77;94256.66;5068846;28;20207;-74
2023/07/31 05:22:30;;;;;;;15.27;10.98;;;;;;;24.60;68.09;94261.09;5068605;28;20280;-73
2023/07/31 05:24:58;;;;;;;17.63;13.60;;;;;;;25.17;65.77;94252.34;5068138;28;20215;-74
2023/07/31 05:27:25;;;;;;;13.52;8.32;;;;;;;25.49;64.07;94252.41;5067745;28;20784;-75
2023/07/31 05:29:52;;;;;;;13.05;8.55;;;;;;;25.99;62.41;94253.97;5069016;28;20688;-73
2023/07/31 05:32:19;;;;;;;12.95;9.30;;;;;;;27.02;60.06;94247.63;5068989;28;20230;-74
2023/07/31 05:34:45;;;;;;;11.70;7.88;;;;;;;25.65;62.25;94260.00;5068902;28;20211;-75
2023/07/31 05:37:12;;;;;;;12.85;8.73;;;;;;;24.50;66.13;94262.84;5068747;28;20732;-74
2023/07/31 05:39:39;;;;;;;12.85;7.88;;;;;;;23.98;67.94;94257.84;5068943;28;20272;-74
2023/07/31 05:42:07;;;;;;;11.75;7.25;;;;;;;22.94;72.63;94262.63;5068860;28;20241;-74
2023/07/31 05:44:35;;;;;;;11.95;8.77;;;;;;;23.25;71.99;94261.38;5068523;28;20210;-74
2023/07/31 05:47:01;;;;;;;9.75;7.18;;;;;;;23.70;70.17;94255.56;5072183;28;20203;-73
2023/07/31 05:49:28;;;;;;;9.55;8.45;;;;;;;24.95;64.89;94256.81;5082289;28;20234;-74
2023/07/31 05:51:55;;;;;;;13.05;9.13;;;;;;;25.45;63.23;94257.25;5068563;28;20203;-75
2023/07/31 05:54:22;;;;;;;8.23;7.28;;;;;;;25.57;61.87;94263.31;5068863;28;20214;-74
2023/07/31 05:56:48;;;;;;;7.30;5.57;;;;;;;23.96;65.26;94254.72;5068619;28;20202;-74
2023/07/31 05:59:17;;;;;;;7.15;4.80;;;;;;;22.64;69.27;94277.97;5068243;28;20260;-73
2023/07/31 06:01:43;;;;;;;8.77;6.30;;;;;;;22.22;71.00;94278.47;5087457;28;20431;-71
2023/07/31 06:04:10;;;;;;;7.63;6.35;;;;;;;22.07;71.22;94272.31;5068614;28;20206;-74
2023/07/31 06:06:37;;;;;;;6.00;4.55;;;;;;;22.05;71.95;94279.41;5067824;28;20256;-73
2023/07/31 06:09:04;;;;;;;5.78;4.22;;;;;;;22.09;71.72;94271.91;5067869;28;20296;-76
2023/07/31 06:11:31;;;;;;;6.18;4.07;;;;;;;23.42;67.23;94275.34;5068864;28;20292;-75
2023/07/31 06:13:58;;;;;;;6.68;3.90;;;;;;;24.62;62.51;94273.28;5071161;28;20210;-72
2023/07/31 06:16:27;;;;;;;5.30;3.58;;;;;;;25.12;60.22;94272.28;5072044;28;20270;-73
2023/07/31 06:18:53;;;;;;;4.32;3.38;;;;;;;25.90;58.28;94262.16;5071964;28;20282;-73
2023/07/31 06:21:20;;;;;;;4.40;3.00;;;;;;;26.77;55.19;94254.69;5072235;28;20203;-73
2023/07/31 06:23:47;;;;;;;4.70;4.30;;;;;;;27.51;52.73;94257.22;5070529;28;20234;-74
2023/07/31 06:26:14;;;;;;;6.85;4.75;;;;;;;28.00;51.05;94254.09;5067615;28;20252;-73
2023/07/31 06:28:41;;;;;;;5.47;3.90;;;;;;;27.55;50.82;94263.47;5070291;28;20225;-72
2023/07/31 06:31:07;;;;;;;3.85;3.40;;;;;;;25.88;55.03;94272.91;5069328;28;20199;-74
2023/07/31 06:33:36;;;;;;;4.78;3.90;;;;;;;25.16;57.90;94281.28;5070559;28;20242;-74
2023/07/31 06:36:02;;;;;;;4.47;2.78;;;;;;;24.36;59.29;94265.88;5071502;28;20199;-71
2023/07/31 06:38:29;;;;;;;7.30;3.17;;;;;;;24.40;59.95;94266.63;5080265;28;20195;-75
2023/07/31 06:40:56;;;;;;;5.60;3.70;;;;;;;25.27;57.93;94272.75;5071407;28;20203;-75
2023/07/31 06:43:23;;;;;;;4.70;3.35;;;;;;;25.34;57.95;94273.38;5071353;28;20214;-76
2023/07/31 06:45:51;;;;;;;3.80;3.40;;;;;;;24.46;59.70;94269.69;5074402;28;20190;-72
2023/07/31 06:48:18;;;;;;;4.93;3.70;;;;;;;24.25;61.51;94279.94;5074112;28;20234;-75
2023/07/31 06:50:46;;;;;;;6.05;3.47;;;;;;;23.86;62.48;94271.53;5071380;28;20256;-73
2023/07/31 06:53:13;;;;;;;8.40;3.83;;;;;;;24.46;61.94;94289.06;5071328;28;20206;-75
2023/07/31 06:55:39;;;;;;;4.47;3.35;;;;;;;23.93;62.48;94288.78;5070530;28;20195;-75
2023/07/31 06:58:06;;;;;;;4.72;3.70;;;;;;;24.49;62.03;94291.75;5070386;28;20195;-73
2023/07/31 07:00:33;;;;;;;4.78;3.70;;;;;;;26.38;57.71;94294.63;5072560;28;20199;-75
2023/07/31 07:03:00;;;;;;;3.70;3.20;;;;;;;26.58;55.39;94275.06;5070768;28;20194;-75
2023/07/31 07:05:27;;;;;;;3.90;2.65;;;;;;;25.64;56.35;94279.84;5070906;28;20284;-76
2023/07/31 07:07:55;;;;;;;3.92;3.38;;;;;;;24.68;58.99;94282.69;5070537;28;20662;-72
2023/07/31 07:10:22;;;;;;;3.65;2.88;;;;;;;25.09;58.41;94282.25;5071118;28;20203;-75
2023/07/31 07:12:49;;;;;;;3.25;2.80;;;;;;;26.17;56.14;94267.41;5070841;28;20650;-74
2023/07/31 07:15:16;;;;;;;4.95;3.42;;;;;;;25.57;56.14;94268.88;5070771;28;20575;-73
2023/07/31 07:17:43;;;;;;;4.18;2.88;;;;;;;26.53;54.56;94290.25;5070908;28;20210;-73
2023/07/31 07:20:10;;;;;;;3.28;2.53;;;;;;;26.40;54.61;94280.31;5070627;28;20524;-75
2023/07/31 07:22:37;;;;;;;3.63;2.88;;;;;;;26.25;54.20;94281.88;5070857;28;20637;-74
2023/07/31 07:25:07;;;;;;;4.75;3.03;;;;;;;26.29;55.09;94288.16;5068595;28;20241;-76
2023/07/31 07:27:34;;;;;;;2.33;1.92;;;;;;;26.74;52.21;94275.00;5068701;28;20286;-75
2023/07/31 07:30:01;;;;;;;3.45;1.95;;;;;;;25.84;54.34;94283.31;5070835;28;20296;-77
2023/07/31 07:32:27;;;;;;;2.45;2.10;;;;;;;26.78;52.23;94272.16;5070614;28;20234;-76
2023/07/31 07:34:54;;;;;;;2.10;1.45;;;;;;;27.45;50.35;94272.94;5070453;28;20352;-76
2023/07/31 07:37:21;;;;;;;2.00;1.80;;;;;;;28.31;48.38;94262.59;5070323;28;20217;-77
2023/07/31 07:39:48;;;;;;;4.90;2.22;;;;;;;28.58;48.36;94278.78;5067689;28;20702;-72
2023/07/31 07:42:16;;;;;;;5.88;2.03;;;;;;;28.71;47.77;94268.34;5070400;28;20209;-76
2023/07/31 07:44:42;;;;;;;3.95;2.40;;;;;;;28.01;49.27;94289.09;5070316;28;20290;-75
2023/07/31 07:47:09;;;;;;;3.22;2.60;;;;;;;26.66;51.79;94281.97;5073599;28;20620;-76
2023/07/31 07:49:36;;;;;;;3.42;2.92;;;;;;;27.02;52.23;94281.00;5070101;28;20226;-76
2023/07/31 07:52:04;;;;;;;3.13;2.50;;;;;;;25.37;54.88;94302.25;5070317;28;20199;-77
2023/07/31 07:54:31;;;;;;;2.78;2.20;;;;;;;25.46;55.33;94300.44;5070367;28;20273;-76
2023/07/31 07:56:58;;;;;;;2.78;2.22;;;;;;;26.97;52.04;94290.66;5070197;28;20245;-77
2023/07/31 07:59:26;;;;;;;2.25;2.05;;;;;;;25.88;53.27;94289.56;5070777;28;20195;-75
2023/07/31 08:01:53;;;;;;;2.42;2.05;;;;;;;26.03;53.74;94284.44;5077645;28;20207;-73
2023/07/31 08:04:20;;;;;;;2.38;2.08;;;;;;;26.54;52.58;94277.16;5070277;28;20233;-75
2023/07/31 08:06:47;;;;;;;2.28;1.65;;;;;;;26.56;52.12;94294.16;5069314;28;20210;-74
2023/07/31 08:09:13;;;;;;;2.47;1.48;;;;;;;24.93;55.18;94303.53;5070076;28;20354;-74
2023/07/31 08:11:40;;;;;;;2.80;1.90;;;;;;;25.13;55.90;94296.03;5070305;28;20203;-76
2023/07/31 08:14:07;;;;;;;5.32;2.53;;;;;;;25.64;54.77;94299.28;5056707;28;20199;-72
2023/07/31 08:16:35;;;;;;;3.28;2.40;;;;;;;25.88;53.56;94289.56;5069825;28;20289;-76
2023/07/31 08:19:02;;;;;;;3.42;2.25;;;;;;;26.32;52.36;94301.19;5069020;28;20203;-75
2023/07/31 08:21:29;;;;;;;2.72;2.38;;;;;;;27.58;50.33;94290.44;5069694;28;20211;-76
2023/07/31 08:23:55;;;;;;;2.92;2.47;;;;;;;26.42;52.34;94294.56;5069110;28;20219;-72
2023/07/31 08:26:22;;;;;;;2.95;2.38;;;;;;;26.74;50.93;94282.56;5069628;28;20207;-74
2023/07/31 08:28:49;;;;;;;2.70;2.47;;;;;;;26.54;52.14;94291.81;5069609;28;20234;-76
2023/07/31 08:31:16;;;;;;;2.45;2.08;;;;;;;26.18;52.37;94303.06;5067531;28;20654;-74
2023/07/31 08:33:44;;;;;;;8.07;2.30;;;;;;;27.16;50.73;94286.16;5069286;28;20195;-75
2023/07/31 08:36:10;;;;;;;2.58;1.95;;;;;;;27.05;50.52;94291.25;5067525;28;20284;-75
2023/07/31 08:38:37;;;;;;;4.60;2.15;;;;;;;26.59;51.00;94282.19;5069687;28;20211;-76
2023/07/31 08:41:04;;;;;;;3.45;2.80;;;;;;;26.48;51.07;94276.16;5069960;28;20209;-76
2023/07/31 08:43:31;;;;;;;2.97;2.33;;;;;;;26.10;52.15;94296.13;5068678;28;20694;-73
2023/07/31 08:45:58;;;;;;;3.17;2.78;;;;;;;26.30;51.81;94286.94;5072029;28;20601;-73
2023/07/31 08:48:26;;;;;;;2.78;2.30;;;;;;;25.73;52.58;94293.88;5068552;28;20222;-74
2023/07/31 08:50:54;;;;;;;2.65;2.45;;;;;;;26.31;51.93;94288.50;5069520;28;20230;-75
2023/07/31 08:53:21;;;;;;;3.38;2.08;;;;;;;27.12;50.34;94279.91;5075689;28;20207;-75
2023/07/31 08:55:50;;;;;;;3.65;1.95;;;;;;;27.57;48.54;94294.47;5068952;28;20622;-76
2023/07/31 08:58:19;;;;;;;4.18;2.72;;;;;;;27.40;49.54;94287.41;5069456;28;20230;-75
2023/07/31 09:00:47;;;;;;;3.22;2.65;;;;;;;27.96;48.17;94281.28;5077584;28;20256;-75
2023/07/31 09:03:15;;;;;;;2.88;2.50;;;;;;;26.81;48.66;94294.25;5068999;28;20203;-72
2023/07/31 09:05:45;;;;;;;3.15;2.65;;;;;;;27.41;49.01;94291.75;5069041;28;20199;-75
2023/07/31 09:08:14;;;;;;;2.63;2.15;;;;;;;27.08;48.74;94290.34;5069322;28;20286;-74
2023/07/31 09:10:45;;;;;;;2.63;2.28;;;;;;;26.82;49.18;94289.47;5068763;28;20206;-76
2023/07/31 09:13:12;;;;;;;3.70;2.72;;;;;;;27.12;48.40;94279.91;5068559;28;20206;-73
2023/07/31 09:15:40;;;;;;;4.32;2.50;;;;;;;27.42;47.98;94279.38;5068892;28;20211;-74
2023/07/31 09:18:08;;;;;;;2.63;2.10;;;;;;;27.09;48.44;94276.00;5068248;28;20207;-72
2023/07/31 09:20:37;;;;;;;4.68;2.25;;;;;;;26.39;48.45;94284.31;5056300;28;20202;-75
2023/07/31 09:23:09;;;;;;;3.47;2.22;;;;;;;26.08;49.59;94281.94;5069284;28;20218;-74
2023/07/31 09:25:38;;;;;;;4.45;2.20;;;;;;;26.57;49.81;94275.50;5069494;28;20264;-75
2023/07/31 09:28:06;;;;;;;2.60;2.22;;;;;;;26.77;48.87;94274.13;5070499;28;20199;-74
2023/07/31 09:30:46;;;;;;;2.95;2.40;;;;;;;26.78;49.38;94261.81;5080071;28;20227;-73
2023/07/31 09:33:13;;;;;;;3.67;2.55;;;;;;;26.80;50.05;94264.91;5068393;28;20799;-74
2023/07/31 09:35:41;;;;;;;3.30;2.33;;;;;;;26.27;51.28;94265.56;5068715;28;20203;-75
2023/07/31 09:38:10;;;;;;;2.92;2.35;;;;;;;26.68;49.68;94251.75;5068797;28;20286;-72
2023/07/31 09:40:39;;;;;;;2.92;2.40;;;;;;;27.87;48.38;94253.34;5068672;28;20214;-73
2023/07/31 09:43:07;;;;;;;2.63;2.35;;;;;;;28.06;47.40;94246.72;5068816;28;20202;-76
2023/07/31 09:45:37;;;;;;;2.85;2.55;;;;;;;27.96;47.07;94245.06;5070958;28;20199;-75
2023/07/31 09:48:04;;;;;;;2.75;2.22;;;;;;;28.32;46.17;94241.09;5072264;28;20220;-75
2023/07/31 09:50:31;;;;;;;3.13;2.70;;;;;;;28.39;45.36;94252.00;5072346;28;20234;-74
2023/07/31 09:52:58;;;;;;;4.80;2.88;;;;;;;28.61;45.16;94241.66;5071892;28;21013;-76
2023/07/31 09:55:25;;;;;;;3.00;2.70;;;;;;;28.27;46.66;94251.59;5072345;28;20203;-73
2023/07/31 09:57:56;;;;;;;3.65;2.80;;;;;;;27.41;47.65;94241.66;5058202;28;20633;-75
2023/07/31 10:00:25;;;;;;;4.15;2.40;;;;;;;26.89;48.85;94251.16;5080317;28;20186;-74
2023/07/31 10:02:52;;;;;;;5.25;2.53;;;;;;;27.23;48.35;94246.97;5071788;28;20683;-74
2023/07/31 10:05:21;;;;;;;5.35;2.33;;;;;;;27.89;46.36;94231.38;5072304;28;20233;-74
2023/07/31 10:07:54;;;;;;;5.07;2.38;;;;;;;28.83;45.11;94231.31;5072097;28;20213;-74
2023/07/31 10:10:22;;;;;;;4.00;2.28;;;;;;;28.20;46.69;94239.91;5071961;28;20217;-72
2023/07/31 10:12:50;;;;;;;2.65;2.30;;;;;;;28.32;44.30;94241.09;5072023;28;20743;-76
2023/07/31 10:15:18;;;;;;;3.72;2.20;;;;;;;27.35;46.49;94249.00;5071753;28;20264;-73
2023/07/31 10:17:47;;;;;;;3.80;2.22;;;;;;;26.49;48.60;94249.94;5071879;28;20210;-75
2023/07/31 10:20:16;;;;;;;5.47;2.30;;;;;;;27.27;46.84;94242.09;5072038;28;20260;-74
2023/07/31 10:22:43;;;;;;;2.55;1.75;;;;;;;27.84;44.56;94235.53;5072110;28;20219;-76
2023/07/31 10:25:10;;;;;;;1.90;1.70;;;;;;;27.92;45.51;94231.25;5071884;28;20207;-74
2023/07/31 10:27:40;;;;;;;6.95;2.08;;;;;;;27.19;46.38;94236.00;5072112;28;20215;-73
2023/07/31 10:30:09;;;;;;;2.30;2.10;;;;;;;27.02;46.22;94242.09;5070997;28;20230;-77
2023/07/31 10:32:41;;;;;;;3.47;2.20;;;;;;;27.60;45.80;94234.34;5071891;28;20226;-76
2023/07/31 10:35:09;;;;;;;2.72;1.67;;;;;;;28.47;44.78;94223.41;5071957;28;20249;-75
2023/07/31 10:37:41;;;;;;;2.83;2.00;;;;;;;29.02;43.84;94231.41;5085105;28;20661;-75
2023/07/31 10:40:12;;;;;;;2.55;1.92;;;;;;;27.97;45.19;94229.94;5059089;28;20248;-76
2023/07/31 10:42:47;;;;;;;3.95;2.20;;;;;;;28.05;44.66;94225.66;5071998;28;20289;-76
2023/07/31 10:45:14;;;;;;;2.33;1.90;;;;;;;28.09;43.99;94228.34;5071468;28;20226;-75
2023/07/31 10:47:46;;;;;;;2.55;2.20;;;;;;;28.74;43.24;94220.06;5068085;28;20203;-74
2023/07/31 10:50:19;;;;;;;2.30;1.73;;;;;;;28.79;42.71;94219.50;5071289;28;20227;-73
2023/07/31 10:52:50;;;;;;;2.45;2.15;;;;;;;28.72;43.32;94225.31;5071894;28;20271;-72
2023/07/31 10:55:25;;;;;;;4.65;2.00;;;;;;;29.11;42.08;94218.28;5070704;28;20207;-74
2023/07/31 10:57:53;;;;;;;4.97;2.10;;;;;;;29.27;42.13;94214.47;5069547;28;20221;-74
2023/07/31 11:00:22;;;;;;;3.55;2.20;;;;;;;29.46;40.80;94204.22;5079437;28;20195;-75
2023/07/31 11:03:01;;;;;;;2.75;1.73;;;;;;;29.55;41.13;94207.81;5084061;28;20555;-74
2023/07/31 11:05:46;;;;;;;1.70;1.60;;;;;;;29.46;41.38;94207.00;5085356;28;20210;-75
2023/07/31 11:08:18;;;;;;;2.25;1.90;;;;;;;28.86;41.31;94199.69;5071032;28;20203;-73
2023/07/31 11:10:45;;;;;;;5.15;2.08;;;;;;;29.50;40.38;94205.63;5071001;28;20735;-77
2023/07/31 11:13:13;;;;;;;1.92;1.50;;;;;;;29.50;39.66;94200.03;5071001;28;20664;-74
2023/07/31 11:15:40;;;;;;;2.10;1.77;;;;;;;29.53;40.07;94193.53;5070971;28;20211;-75
2023/07/31 11:18:10;;;;;;;2.22;1.77;;;;;;;28.48;40.62;94202.69;5071054;28;20202;-74
2023/07/31 11:20:38;;;;;;;2.63;1.70;;;;;;;27.94;42.10;94206.53;5071224;28;20596;-77
2023/07/31 11:23:08;;;;;;;2.63;1.90;;;;;;;27.68;42.63;94209.81;5071016;28;20238;-75
2023/07/31 11:25:35;;;;;;;1.90;1.58;;;;;;;28.59;40.45;94191.13;5070880;28;20203;-72
2023/07/31 11:28:06;;;;;;;2.10;1.52;;;;;;;28.84;39.59;94198.59;5070380;28;20203;-74
2023/07/31 11:30:33;;;;;;;4.07;1.70;;;;;;;28.81;39.73;94205.88;5070208;28;20242;-74